sensor_id;sensor_type;location;lat;lon;timestamp;pressure;altitude;pressure_sealevel;temperature;humidity
72548;BME280;60570;50.848;6.776;2023-05-07T00:00:25;100518.81;;;17.69;64.38
72548;BME280;60570;50.848;6.776;2023-05-07T00:01:26;100523.19;;;17.67;64.36
72548;BME280;60570;50.848;6.776;2023-05-07T00:02:27;100519.94;;;17.65;64.27
72548;BME280;60570;50.848;6.776;2023-05-07T00:03:28;100516.72;;;17.63;64.44
72548;BME280;60570;50.848;6.776;2023-05-07T00:04:29;100521.59;;;17.66;64.36
72548;BME280;60570;50.848;6.776;2023-05-07T00:05:36;100523.97;;;17.64;64.53
72548;BME280;60570;50.848;6.776;2023-05-07T00:06:38;100518.34;;;17.64;64.50
72548;BME280;60570;50.848;6.776;2023-05-07T00:07:40;100520.78;;;17.65;64.37
72548;BME280;60570;50.848;6.776;2023-05-07T00:08:41;100514.28;;;17.61;64.71
72548;BME280;60570;50.848;6.776;2023-05-07T00:09:42;100517.50;;;17.60;64.67
72548;BME280;60570;50.848;6.776;2023-05-07T00:10:44;100511.91;;;17.63;64.54
72548;BME280;60570;50.848;6.776;2023-05-07T00:11:45;100514.69;;;17.60;64.52
72548;BME280;60570;50.848;6.776;2023-05-07T00:12:46;100515.47;;;17.60;64.64
72548;BME280;60570;50.848;6.776;2023-05-07T00:13:47;100516.31;;;17.64;64.45
72548;BME280;60570;50.848;6.776;2023-05-07T00:14:48;100513.50;;;17.64;64.17
72548;BME280;60570;50.848;6.776;2023-05-07T00:15:49;100515.13;;;17.62;64.38
72548;BME280;60570;50.848;6.776;2023-05-07T00:16:50;100517.13;;;17.65;64.30
72548;BME280;60570;50.848;6.776;2023-05-07T00:17:51;100515.91;;;17.62;64.42
72548;BME280;60570;50.848;6.776;2023-05-07T00:18:53;100513.88;;;17.59;64.40
72548;BME280;60570;50.848;6.776;2023-05-07T00:19:53;100508.69;;;17.61;64.62
72548;BME280;60570;50.848;6.776;2023-05-07T00:20:55;100511.47;;;17.61;64.44
72548;BME280;60570;50.848;6.776;2023-05-07T00:21:56;100518.34;;;17.64;64.18
72548;BME280;60570;50.848;6.776;2023-05-07T00:22:59;100517.97;;;17.65;64.29
72548;BME280;60570;50.848;6.776;2023-05-07T00:24:00;100515.13;;;17.62;64.52
72548;BME280;60570;50.848;6.776;2023-05-07T00:25:02;100520.72;;;17.62;64.32
72548;BME280;60570;50.848;6.776;2023-05-07T00:26:03;100521.47;;;17.59;64.65
72548;BME280;60570;50.848;6.776;2023-05-07T00:27:04;100519.50;;;17.59;64.43
72548;BME280;60570;50.848;6.776;2023-05-07T00:28:05;100520.25;;;17.56;64.53
72548;BME280;60570;50.848;6.776;2023-05-07T00:29:06;100522.28;;;17.59;64.42
72548;BME280;60570;50.848;6.776;2023-05-07T00:30:07;100520.25;;;17.56;64.58
72548;BME280;60570;50.848;6.776;2023-05-07T00:31:09;100516.63;;;17.56;64.76
72548;BME280;60570;50.848;6.776;2023-05-07T00:32:10;100517.50;;;17.60;64.25
72548;BME280;60570;50.848;6.776;2023-05-07T00:33:11;100516.25;;;17.57;64.33
72548;BME280;60570;50.848;6.776;2023-05-07T00:34:12;100519.50;;;17.59;64.43
72548;BME280;60570;50.848;6.776;2023-05-07T00:35:13;100510.59;;;17.54;64.46
72548;BME280;60570;50.848;6.776;2023-05-07T00:36:14;100513.06;;;17.59;64.45
72548;BME280;60570;50.848;6.776;2023-05-07T00:37:15;100516.16;;;17.50;64.55
72548;BME280;60570;50.848;6.776;2023-05-07T00:38:17;100516.22;;;17.54;64.35
72548;BME280;60570;50.848;6.776;2023-05-07T00:39:18;100509.78;;;17.53;64.59
72548;BME280;60570;50.848;6.776;2023-05-07T00:40:19;100511.41;;;17.54;64.46
72548;BME280;60570;50.848;6.776;2023-05-07T00:41:20;100517.78;;;17.51;64.64
72548;BME280;60570;50.848;6.776;2023-05-07T00:42:21;100510.97;;;17.52;64.73
72548;BME280;60570;50.848;6.776;2023-05-07T00:43:24;100509.78;;;17.53;64.60
72548;BME280;60570;50.848;6.776;2023-05-07T00:44:24;100506.22;;;17.56;64.20
72548;BME280;60570;50.848;6.776;2023-05-07T00:45:27;100500.97;;;17.55;64.41
72548;BME280;60570;50.848;6.776;2023-05-07T00:46:28;100502.19;;;17.57;64.34
72548;BME280;60570;50.848;6.776;2023-05-07T00:47:30;100505.41;;;17.56;64.19
72548;BME280;60570;50.848;6.776;2023-05-07T00:48:31;100501.81;;;17.59;64.20
72548;BME280;60570;50.848;6.776;2023-05-07T00:49:35;100495.69;;;17.50;64.40
72548;BME280;60570;50.848;6.776;2023-05-07T00:50:37;100495.19;;;17.44;64.85
72548;BME280;60570;50.848;6.776;2023-05-07T00:51:39;100498.81;;;17.45;64.90
72548;BME280;60570;50.848;6.776;2023-05-07T00:52:39;100495.22;;;17.48;64.68
72548;BME280;60570;50.848;6.776;2023-05-07T00:53:43;100501.31;;;17.50;64.78
72548;BME280;60570;50.848;6.776;2023-05-07T00:54:44;100504.00;;;17.43;64.97
72548;BME280;60570;50.848;6.776;2023-05-07T00:55:46;100494.41;;;17.47;64.63
72548;BME280;60570;50.848;6.776;2023-05-07T00:56:46;100494.88;;;17.49;64.53
72548;BME280;60570;50.848;6.776;2023-05-07T00:57:48;100492.88;;;17.50;64.56
72548;BME280;60570;50.848;6.776;2023-05-07T00:58:49;100500.41;;;17.46;64.62
72548;BME280;60570;50.848;6.776;2023-05-07T00:59:51;100491.13;;;17.42;64.67
72548;BME280;60570;50.848;6.776;2023-05-07T01:00:52;100488.72;;;17.40;64.90
72548;BME280;60570;50.848;6.776;2023-05-07T01:01:53;100495.50;;;17.39;64.89
72548;BME280;60570;50.848;6.776;2023-05-07T01:02:54;100491.59;;;17.47;64.61
72548;BME280;60570;50.848;6.776;2023-05-07T01:03:56;100495.09;;;17.37;64.82
72548;BME280;60570;50.848;6.776;2023-05-07T01:04:57;100494.34;;;17.40;64.95
72548;BME280;60570;50.848;6.776;2023-05-07T01:05:59;100490.31;;;17.41;64.68
72548;BME280;60570;50.848;6.776;2023-05-07T01:07:00;100491.56;;;17.44;64.65
72548;BME280;60570;50.848;6.776;2023-05-07T01:08:02;100497.53;;;17.39;65.01
72548;BME280;60570;50.848;6.776;2023-05-07T01:09:05;100501.13;;;17.39;64.88
72548;BME280;60570;50.848;6.776;2023-05-07T01:10:09;100499.59;;;17.45;64.47
72548;BME280;60570;50.848;6.776;2023-05-07T01:11:10;100498.31;;;17.39;64.84
72548;BME280;60570;50.848;6.776;2023-05-07T01:12:12;100503.56;;;17.41;64.85
72548;BME280;60570;50.848;6.776;2023-05-07T01:13:13;100497.47;;;17.35;65.18
72548;BME280;60570;50.848;6.776;2023-05-07T01:14:15;100499.13;;;17.40;64.86
72548;BME280;60570;50.848;6.776;2023-05-07T01:15:16;100494.22;;;17.33;65.05
72548;BME280;60570;50.848;6.776;2023-05-07T01:16:18;100489.47;;;17.37;64.79
72548;BME280;60570;50.848;6.776;2023-05-07T01:17:18;100499.09;;;17.36;64.87
72548;BME280;60570;50.848;6.776;2023-05-07T01:18:21;100482.63;;;17.35;65.03
72548;BME280;60570;50.848;6.776;2023-05-07T01:19:22;100487.81;;;17.33;64.97
72548;BME280;60570;50.848;6.776;2023-05-07T01:20:23;100497.47;;;17.35;65.01
72548;BME280;60570;50.848;6.776;2023-05-07T01:21:25;100486.63;;;17.34;65.21
72548;BME280;60570;50.848;6.776;2023-05-07T01:22:30;100486.63;;;17.34;65.16
72548;BME280;60570;50.848;6.776;2023-05-07T01:23:32;100482.56;;;17.31;65.31
72548;BME280;60570;50.848;6.776;2023-05-07T01:24:35;100490.19;;;17.31;65.13
72548;BME280;60570;50.848;6.776;2023-05-07T01:25:36;100485.81;;;17.33;65.10
72548;BME280;60570;50.848;6.776;2023-05-07T01:26:38;100487.47;;;17.38;64.93
72548;BME280;60570;50.848;6.776;2023-05-07T01:27:38;100487.00;;;17.32;64.97
72548;BME280;60570;50.848;6.776;2023-05-07T01:28:40;100486.72;;;17.41;64.84
72548;BME280;60570;50.848;6.776;2023-05-07T01:29:40;100491.09;;;17.38;64.87
72548;BME280;60570;50.848;6.776;2023-05-07T01:30:42;100493.53;;;17.40;64.79
72548;BME280;60570;50.848;6.776;2023-05-07T01:31:45;100489.03;;;17.35;64.98
72548;BME280;60570;50.848;6.776;2023-05-07T01:32:49;100497.09;;;17.37;65.22
72548;BME280;60570;50.848;6.776;2023-05-07T01:33:51;100493.53;;;17.40;64.77
72548;BME280;60570;50.848;6.776;2023-05-07T01:34:53;100496.72;;;17.38;64.80
72548;BME280;60570;50.848;6.776;2023-05-07T01:35:54;100493.09;;;17.38;65.01
72548;BME280;60570;50.848;6.776;2023-05-07T01:36:56;100491.50;;;17.37;64.58
72548;BME280;60570;50.848;6.776;2023-05-07T01:37:59;100489.91;;;17.39;64.80
72548;BME280;60570;50.848;6.776;2023-05-07T01:39:01;100490.66;;;17.36;64.83
72548;BME280;60570;50.848;6.776;2023-05-07T01:40:02;100496.72;;;17.38;64.80
72548;BME280;60570;50.848;6.776;2023-05-07T01:41:05;100490.28;;;17.38;64.52
72548;BME280;60570;50.848;6.776;2023-05-07T01:42:06;100490.66;;;17.36;64.67
72548;BME280;60570;50.848;6.776;2023-05-07T01:43:08;100483.84;;;17.37;64.62
72548;BME280;60570;50.848;6.776;2023-05-07T01:44:09;100485.88;;;17.37;64.55
72548;BME280;60570;50.848;6.776;2023-05-07T01:45:13;100489.81;;;17.32;64.79
72548;BME280;60570;50.848;6.776;2023-05-07T01:46:14;100485.81;;;17.33;64.86
72548;BME280;60570;50.848;6.776;2023-05-07T01:47:16;100482.63;;;17.35;64.73
72548;BME280;60570;50.848;6.776;2023-05-07T01:48:17;100484.97;;;17.29;65.04
72548;BME280;60570;50.848;6.776;2023-05-07T01:49:19;100480.56;;;17.32;64.75
72548;BME280;60570;50.848;6.776;2023-05-07T01:50:19;100489.00;;;17.32;64.80
72548;BME280;60570;50.848;6.776;2023-05-07T01:51:21;100480.56;;;17.32;64.88
72548;BME280;60570;50.848;6.776;2023-05-07T01:52:22;100480.16;;;17.30;65.02
72548;BME280;60570;50.848;6.776;2023-05-07T01:53:27;100488.19;;;17.31;64.90
72548;BME280;60570;50.848;6.776;2023-05-07T01:54:28;100478.59;;;17.32;64.78
72548;BME280;60570;50.848;6.776;2023-05-07T01:55:30;100480.16;;;17.30;64.90
72548;BME280;60570;50.848;6.776;2023-05-07T01:56:31;100483.00;;;17.33;64.83
72548;BME280;60570;50.848;6.776;2023-05-07T01:57:33;100481.34;;;17.29;65.00
72548;BME280;60570;50.848;6.776;2023-05-07T01:58:33;100473.34;;;17.31;64.93
72548;BME280;60570;50.848;6.776;2023-05-07T01:59:35;100472.94;;;17.29;64.79
72548;BME280;60570;50.848;6.776;2023-05-07T02:00:35;100466.44;;;17.25;65.04
72548;BME280;60570;50.848;6.776;2023-05-07T02:01:37;100466.97;;;17.34;64.81
72548;BME280;60570;50.848;6.776;2023-05-07T02:02:37;100465.31;;;17.29;64.83
72548;BME280;60570;50.848;6.776;2023-05-07T02:03:39;100468.06;;;17.26;64.92
72548;BME280;60570;50.848;6.776;2023-05-07T02:04:40;100466.50;;;17.28;64.73
72548;BME280;60570;50.848;6.776;2023-05-07T02:05:41;100464.38;;;17.22;64.79
72548;BME280;60570;50.848;6.776;2023-05-07T02:06:42;100467.63;;;17.24;64.96
72548;BME280;60570;50.848;6.776;2023-05-07T02:07:43;100465.69;;;17.28;65.02
72548;BME280;60570;50.848;6.776;2023-05-07T02:08:45;100468.88;;;17.26;64.80
72548;BME280;60570;50.848;6.776;2023-05-07T02:09:46;100471.28;;;17.28;64.77
72548;BME280;60570;50.848;6.776;2023-05-07T02:10:47;100478.06;;;17.23;64.94
72548;BME280;60570;50.848;6.776;2023-05-07T02:11:50;100477.25;;;17.23;64.91
72548;BME280;60570;50.848;6.776;2023-05-07T02:12:50;100479.25;;;17.22;64.96
72548;BME280;60570;50.848;6.776;2023-05-07T02:13:51;100477.72;;;17.28;64.73
72548;BME280;60570;50.848;6.776;2023-05-07T02:14:53;100486.50;;;17.23;64.83
72548;BME280;60570;50.848;6.776;2023-05-07T02:15:54;100476.81;;;17.21;65.14
72548;BME280;60570;50.848;6.776;2023-05-07T02:16:55;100477.56;;;17.18;65.05
72548;BME280;60570;50.848;6.776;2023-05-07T02:18:00;100475.69;;;17.25;64.82
72548;BME280;60570;50.848;6.776;2023-05-07T02:19:00;100474.00;;;17.21;64.96
72548;BME280;60570;50.848;6.776;2023-05-07T02:20:02;100476.13;;;17.27;64.81
72548;BME280;60570;50.848;6.776;2023-05-07T02:21:03;100471.28;;;17.28;64.66
72548;BME280;60570;50.848;6.776;2023-05-07T02:22:05;100474.88;;;17.25;64.78
72548;BME280;60570;50.848;6.776;2023-05-07T02:23:05;100473.66;;;17.26;65.00
72548;BME280;60570;50.848;6.776;2023-05-07T02:24:08;100468.84;;;17.23;65.14
72548;BME280;60570;50.848;6.776;2023-05-07T02:25:09;100471.22;;;17.21;64.91
72548;BME280;60570;50.848;6.776;2023-05-07T02:26:10;100471.25;;;17.24;64.86
72548;BME280;60570;50.848;6.776;2023-05-07T02:27:11;100484.91;;;17.26;64.78
72548;BME280;60570;50.848;6.776;2023-05-07T02:28:12;100476.00;;;17.20;64.75
72548;BME280;60570;50.848;6.776;2023-05-07T02:29:13;100476.00;;;17.20;64.98
72548;BME280;60570;50.848;6.776;2023-05-07T02:30:15;100474.84;;;17.21;64.72
72548;BME280;60570;50.848;6.776;2023-05-07T02:31:15;100479.28;;;17.26;64.63
72548;BME280;60570;50.848;6.776;2023-05-07T02:32:16;100473.25;;;17.24;65.00
72548;BME280;60570;50.848;6.776;2023-05-07T02:33:17;100475.56;;;17.18;64.93
72548;BME280;60570;50.848;6.776;2023-05-07T02:34:19;100477.56;;;17.18;65.00
72548;BME280;60570;50.848;6.776;2023-05-07T02:35:19;100476.00;;;17.20;65.00
72548;BME280;60570;50.848;6.776;2023-05-07T02:36:21;100476.41;;;17.19;64.76
72548;BME280;60570;50.848;6.776;2023-05-07T02:37:21;100478.00;;;17.20;64.93
72548;BME280;60570;50.848;6.776;2023-05-07T02:38:23;100475.63;;;17.22;64.91
72548;BME280;60570;50.848;6.776;2023-05-07T02:39:25;100474.38;;;17.16;65.09
72548;BME280;60570;50.848;6.776;2023-05-07T02:40:26;100469.88;;;17.11;65.16
72548;BME280;60570;50.848;6.776;2023-05-07T02:41:26;100475.09;;;17.13;65.00
72548;BME280;60570;50.848;6.776;2023-05-07T02:42:28;100479.59;;;17.17;65.03
72548;BME280;60570;50.848;6.776;2023-05-07T02:43:28;100484.84;;;17.22;64.83
72548;BME280;60570;50.848;6.776;2023-05-07T02:44:30;100484.03;;;17.22;64.89
72548;BME280;60570;50.848;6.776;2023-05-07T02:45:31;100486.50;;;17.23;64.89
72548;BME280;60570;50.848;6.776;2023-05-07T02:46:33;100487.63;;;17.19;64.77
72548;BME280;60570;50.848;6.776;2023-05-07T02:47:33;100482.41;;;17.17;64.84
72548;BME280;60570;50.848;6.776;2023-05-07T02:48:35;100490.81;;;17.17;64.97
72548;BME280;60570;50.848;6.776;2023-05-07T02:49:35;100483.25;;;17.21;64.91
72548;BME280;60570;50.848;6.776;2023-05-07T02:50:37;100483.25;;;17.21;64.87
72548;BME280;60570;50.848;6.776;2023-05-07T02:51:37;100494.81;;;17.16;64.97
72548;BME280;60570;50.848;6.776;2023-05-07T02:52:39;100486.41;;;17.20;64.78
72548;BME280;60570;50.848;6.776;2023-05-07T02:53:39;100494.53;;;17.25;64.74
72548;BME280;60570;50.848;6.776;2023-05-07T02:54:43;100487.28;;;17.24;64.74
72548;BME280;60570;50.848;6.776;2023-05-07T02:55:43;100481.56;;;17.17;64.88
72548;BME280;60570;50.848;6.776;2023-05-07T02:56:45;100473.94;;;17.14;64.92
72548;BME280;60570;50.848;6.776;2023-05-07T02:57:45;100485.63;;;17.19;64.82
72548;BME280;60570;50.848;6.776;2023-05-07T02:58:47;100478.44;;;17.22;64.81
72548;BME280;60570;50.848;6.776;2023-05-07T02:59:47;100478.78;;;17.17;64.80
72548;BME280;60570;50.848;6.776;2023-05-07T03:00:49;100477.16;;;17.16;64.93
72548;BME280;60570;50.848;6.776;2023-05-07T03:01:49;100474.25;;;17.09;65.19
72548;BME280;60570;50.848;6.776;2023-05-07T03:02:51;100474.69;;;17.11;64.92
72548;BME280;60570;50.848;6.776;2023-05-07T03:03:51;100479.59;;;17.17;64.90
72548;BME280;60570;50.848;6.776;2023-05-07T03:04:53;100479.97;;;17.16;64.84
72548;BME280;60570;50.848;6.776;2023-05-07T03:05:53;100474.28;;;17.12;64.97
72548;BME280;60570;50.848;6.776;2023-05-07T03:06:55;100473.94;;;17.14;64.96
72548;BME280;60570;50.848;6.776;2023-05-07T03:07:55;100477.06;;;17.09;64.83
72548;BME280;60570;50.848;6.776;2023-05-07T03:08:57;100483.53;;;17.13;64.96
72548;BME280;60570;50.848;6.776;2023-05-07T03:09:58;100479.44;;;17.07;65.08
72548;BME280;60570;50.848;6.776;2023-05-07T03:11:00;100472.22;;;17.06;65.12
72548;BME280;60570;50.848;6.776;2023-05-07T03:12:00;100471.88;;;17.11;64.85
72548;BME280;60570;50.848;6.776;2023-05-07T03:13:02;100470.31;;;17.13;64.94
72548;BME280;60570;50.848;6.776;2023-05-07T03:14:03;100472.69;;;17.11;64.65
72548;BME280;60570;50.848;6.776;2023-05-07T03:15:04;100470.63;;;17.08;64.98
72548;BME280;60570;50.848;6.776;2023-05-07T03:16:05;100470.25;;;17.10;65.15
72548;BME280;60570;50.848;6.776;2023-05-07T03:17:07;100469.44;;;17.09;64.91
72548;BME280;60570;50.848;6.776;2023-05-07T03:18:07;100468.69;;;17.12;64.98
72548;BME280;60570;50.848;6.776;2023-05-07T03:19:09;100472.22;;;17.06;65.03
72548;BME280;60570;50.848;6.776;2023-05-07T03:20:10;100474.63;;;17.07;65.05
72548;BME280;60570;50.848;6.776;2023-05-07T03:21:11;100476.19;;;17.04;64.92
72548;BME280;60570;50.848;6.776;2023-05-07T03:22:12;100470.19;;;17.06;64.88
72548;BME280;60570;50.848;6.776;2023-05-07T03:23:13;100470.25;;;17.10;65.01
72548;BME280;60570;50.848;6.776;2023-05-07T03:24:14;100477.00;;;17.05;65.02
72548;BME280;60570;50.848;6.776;2023-05-07T03:25:17;100475.38;;;17.04;64.95
72548;BME280;60570;50.848;6.776;2023-05-07T03:26:17;100461.78;;;17.06;65.03
72548;BME280;60570;50.848;6.776;2023-05-07T03:27:18;100468.25;;;17.10;64.68
72548;BME280;60570;50.848;6.776;2023-05-07T03:28:19;100467.38;;;17.06;65.06
72548;BME280;60570;50.848;6.776;2023-05-07T03:29:21;100464.97;;;17.04;64.93
72548;BME280;60570;50.848;6.776;2023-05-07T03:30:22;100464.91;;;17.01;65.03
72548;BME280;60570;50.848;6.776;2023-05-07T03:31:23;100464.16;;;17.04;64.98
72548;BME280;60570;50.848;6.776;2023-05-07T03:32:24;100461.00;;;17.06;64.84
72548;BME280;60570;50.848;6.776;2023-05-07T03:33:25;100464.22;;;17.08;64.73
72548;BME280;60570;50.848;6.776;2023-05-07T03:34:27;100462.59;;;17.07;65.02
72548;BME280;60570;50.848;6.776;2023-05-07T03:35:28;100462.16;;;17.04;64.77
72548;BME280;60570;50.848;6.776;2023-05-07T03:36:29;100469.72;;;17.00;65.11
72548;BME280;60570;50.848;6.776;2023-05-07T03:37:31;100458.09;;;17.02;65.00
72548;BME280;60570;50.848;6.776;2023-05-07T03:38:31;100466.06;;;16.96;65.26
72548;BME280;60570;50.848;6.776;2023-05-07T03:39:33;100461.69;;;16.99;65.17
72548;BME280;60570;50.848;6.776;2023-05-07T03:40:35;100455.25;;;16.98;64.95
72548;BME280;60570;50.848;6.776;2023-05-07T03:41:36;100461.69;;;16.99;65.03
72548;BME280;60570;50.848;6.776;2023-05-07T03:42:37;100459.22;;;16.94;65.16
72548;BME280;60570;50.848;6.776;2023-05-07T03:43:38;100463.19;;;16.93;65.25
72548;BME280;60570;50.848;6.776;2023-05-07T03:44:39;100462.81;;;16.94;65.04
72548;BME280;60570;50.848;6.776;2023-05-07T03:45:41;100470.06;;;16.95;64.99
72548;BME280;60570;50.848;6.776;2023-05-07T03:46:42;100462.81;;;16.94;65.27
72548;BME280;60570;50.848;6.776;2023-05-07T03:47:43;100472.44;;;16.93;65.26
72548;BME280;60570;50.848;6.776;2023-05-07T03:48:44;100468.81;;;16.93;65.31
72548;BME280;60570;50.848;6.776;2023-05-07T03:49:45;100478.03;;;16.93;65.21
72548;BME280;60570;50.848;6.776;2023-05-07T03:50:46;100472.81;;;16.92;65.15
72548;BME280;60570;50.848;6.776;2023-05-07T03:51:47;100471.66;;;16.96;65.06
72548;BME280;60570;50.848;6.776;2023-05-07T03:52:48;100473.78;;;17.03;64.91
72548;BME280;60570;50.848;6.776;2023-05-07T03:53:49;100477.41;;;17.03;64.96
72548;BME280;60570;50.848;6.776;2023-05-07T03:54:52;100482.16;;;16.99;64.80
72548;BME280;60570;50.848;6.776;2023-05-07T03:55:55;100485.78;;;17.00;64.92
72548;BME280;60570;50.848;6.776;2023-05-07T03:56:56;100484.19;;;17.02;64.91
72548;BME280;60570;50.848;6.776;2023-05-07T03:57:57;100479.34;;;16.99;64.83
72548;BME280;60570;50.848;6.776;2023-05-07T03:58:58;100480.16;;;17.00;64.82
72548;BME280;60570;50.848;6.776;2023-05-07T03:59:59;100478.53;;;16.99;64.89
72548;BME280;60570;50.848;6.776;2023-05-07T04:00:59;100478.97;;;17.01;64.93
72548;BME280;60570;50.848;6.776;2023-05-07T04:02:01;100482.47;;;16.94;64.98
72548;BME280;60570;50.848;6.776;2023-05-07T04:03:02;100480.91;;;16.97;64.78
72548;BME280;60570;50.848;6.776;2023-05-07T04:04:04;100477.28;;;16.96;64.92
72548;BME280;60570;50.848;6.776;2023-05-07T04:05:05;100486.50;;;16.97;65.03
72548;BME280;60570;50.848;6.776;2023-05-07T04:06:06;100483.31;;;16.98;64.88
72548;BME280;60570;50.848;6.776;2023-05-07T04:07:07;100483.22;;;16.91;65.15
72548;BME280;60570;50.848;6.776;2023-05-07T04:08:08;100486.84;;;16.92;65.11
72548;BME280;60570;50.848;6.776;2023-05-07T04:09:09;100490.41;;;16.89;65.08
72548;BME280;60570;50.848;6.776;2023-05-07T04:10:10;100489.59;;;16.88;65.27
72548;BME280;60570;50.848;6.776;2023-05-07T04:11:12;100485.66;;;16.93;65.10
72548;BME280;60570;50.848;6.776;2023-05-07T04:12:14;100493.22;;;16.89;65.32
72548;BME280;60570;50.848;6.776;2023-05-07T04:13:15;100496.50;;;16.94;65.21
72548;BME280;60570;50.848;6.776;2023-05-07T04:14:17;100492.50;;;16.95;64.89
72548;BME280;60570;50.848;6.776;2023-05-07T04:15:17;100489.22;;;16.90;65.17
72548;BME280;60570;50.848;6.776;2023-05-07T04:16:19;100494.47;;;16.91;65.03
72548;BME280;60570;50.848;6.776;2023-05-07T04:17:19;100486.47;;;16.93;65.07
72548;BME280;60570;50.848;6.776;2023-05-07T04:18:21;100488.06;;;16.94;64.93
72548;BME280;60570;50.848;6.776;2023-05-07T04:19:22;100488.84;;;16.91;65.06
72548;BME280;60570;50.848;6.776;2023-05-07T04:20:23;100489.66;;;16.92;65.00
72548;BME280;60570;50.848;6.776;2023-05-07T04:21:24;100485.56;;;16.86;65.32
72548;BME280;60570;50.848;6.776;2023-05-07T04:22:26;100489.28;;;16.93;65.00
72548;BME280;60570;50.848;6.776;2023-05-07T04:23:27;100485.56;;;16.86;65.18
72548;BME280;60570;50.848;6.776;2023-05-07T04:24:30;100480.31;;;16.84;65.28
72548;BME280;60570;50.848;6.776;2023-05-07T04:25:31;100486.28;;;16.83;65.41
72548;BME280;60570;50.848;6.776;2023-05-07T04:26:34;100480.25;;;16.81;65.32
72548;BME280;60570;50.848;6.776;2023-05-07T04:27:36;100473.91;;;16.84;65.23
72548;BME280;60570;50.848;6.776;2023-05-07T04:28:37;100472.69;;;16.85;65.18
72548;BME280;60570;50.848;6.776;2023-05-07T04:29:38;100476.31;;;16.85;65.22
72548;BME280;60570;50.848;6.776;2023-05-07T04:30:42;100472.25;;;16.83;65.35
72548;BME280;60570;50.848;6.776;2023-05-07T04:31:42;100473.09;;;16.83;65.29
72548;BME280;60570;50.848;6.776;2023-05-07T04:32:45;100472.69;;;16.85;65.31
72548;BME280;60570;50.848;6.776;2023-05-07T04:33:48;100480.31;;;16.84;65.23
72548;BME280;60570;50.848;6.776;2023-05-07T04:34:50;100478.25;;;16.81;65.47
72548;BME280;60570;50.848;6.776;2023-05-07T04:35:51;100471.97;;;16.88;65.17
72548;BME280;60570;50.848;6.776;2023-05-07T04:36:52;100473.91;;;16.84;65.28
72548;BME280;60570;50.848;6.776;2023-05-07T04:37:53;100467.03;;;16.81;65.43
72548;BME280;60570;50.848;6.776;2023-05-07T04:38:54;100469.03;;;16.81;65.28
72548;BME280;60570;50.848;6.776;2023-05-07T04:39:55;100480.25;;;16.81;65.34
72548;BME280;60570;50.848;6.776;2023-05-07T04:40:56;100476.59;;;16.77;65.61
72548;BME280;60570;50.848;6.776;2023-05-07T04:41:58;100465.34;;;16.77;65.65
72548;BME280;60570;50.848;6.776;2023-05-07T04:43:00;100469.38;;;16.76;65.49
72548;BME280;60570;50.848;6.776;2023-05-07T04:44:01;100463.75;;;16.76;65.55
72548;BME280;60570;50.848;6.776;2023-05-07T04:45:04;100468.59;;;16.79;65.46
72548;BME280;60570;50.848;6.776;2023-05-07T04:46:05;100467.81;;;16.78;65.49
72548;BME280;60570;50.848;6.776;2023-05-07T04:47:06;100470.53;;;16.75;65.54
72548;BME280;60570;50.848;6.776;2023-05-07T04:48:07;100473.00;;;16.76;65.62
72548;BME280;60570;50.848;6.776;2023-05-07T04:49:08;100468.59;;;16.79;65.49
72548;BME280;60570;50.848;6.776;2023-05-07T04:50:09;100466.59;;;16.79;65.46
72548;BME280;60570;50.848;6.776;2023-05-07T04:51:10;100474.97;;;16.76;65.43
72548;BME280;60570;50.848;6.776;2023-05-07T04:52:11;100461.72;;;16.73;65.67
72548;BME280;60570;50.848;6.776;2023-05-07T04:53:12;100467.69;;;16.71;65.84
72548;BME280;60570;50.848;6.776;2023-05-07T04:54:13;100470.50;;;16.71;65.64
72548;BME280;60570;50.848;6.776;2023-05-07T04:55:14;100469.28;;;16.69;65.70
72548;BME280;60570;50.848;6.776;2023-05-07T04:56:15;100468.88;;;16.70;65.73
72548;BME280;60570;50.848;6.776;2023-05-07T04:57:18;100468.50;;;16.72;65.65
72548;BME280;60570;50.848;6.776;2023-05-07T04:58:18;100467.69;;;16.71;65.74
72548;BME280;60570;50.848;6.776;2023-05-07T04:59:20;100469.81;;;16.78;65.52
72548;BME280;60570;50.848;6.776;2023-05-07T05:00:20;100469.69;;;16.71;65.60
72548;BME280;60570;50.848;6.776;2023-05-07T05:01:23;100477.34;;;16.74;65.44
72548;BME280;60570;50.848;6.776;2023-05-07T05:02:23;100473.34;;;16.75;65.52
72548;BME280;60570;50.848;6.776;2023-05-07T05:03:24;100476.16;;;16.75;65.67
72548;BME280;60570;50.848;6.776;2023-05-07T05:04:25;100473.72;;;16.73;65.44
72548;BME280;60570;50.848;6.776;2023-05-07T05:05:27;100479.28;;;16.70;65.85
72548;BME280;60570;50.848;6.776;2023-05-07T05:06:27;100478.59;;;16.76;65.49
72548;BME280;60570;50.848;6.776;2023-05-07T05:07:29;100485.38;;;16.75;65.60
72548;BME280;60570;50.848;6.776;2023-05-07T05:08:29;100485.34;;;16.72;65.64
72548;BME280;60570;50.848;6.776;2023-05-07T05:09:31;100487.31;;;16.71;65.69
72548;BME280;60570;50.848;6.776;2023-05-07T05:10:31;100493.31;;;16.70;65.94
72548;BME280;60570;50.848;6.776;2023-05-07T05:11:33;100496.94;;;16.70;65.94
72548;BME280;60570;50.848;6.776;2023-05-07T05:12:34;100494.94;;;16.71;65.80
72548;BME280;60570;50.848;6.776;2023-05-07T05:13:36;100491.63;;;16.65;65.92
72548;BME280;60570;50.848;6.776;2023-05-07T05:14:36;100494.53;;;16.69;65.92
72548;BME280;60570;50.848;6.776;2023-05-07T05:15:38;100494.53;;;16.69;65.89
72548;BME280;60570;50.848;6.776;2023-05-07T05:16:38;100495.25;;;16.66;65.93
72548;BME280;60570;50.848;6.776;2023-05-07T05:17:40;100494.94;;;16.71;65.91
72548;BME280;60570;50.848;6.776;2023-05-07T05:18:40;100499.31;;;16.68;65.69
72548;BME280;60570;50.848;6.776;2023-05-07T05:19:42;100498.50;;;16.68;65.88
72548;BME280;60570;50.848;6.776;2023-05-07T05:20:42;100498.50;;;16.68;65.90